Time,TemperatureF,DewpointF,PressureIn,WindDirection,WindDirectionDegrees,WindSpeedMPH,WindSpeedGustMPH,Humidity,HourlyPrecipIn,Conditions,Clouds,dailyrainin,SoftwareType,DateUTC
2013-03-05 00:04:00,30.8,14.3,30.01,NW,321,1.0,3.0,50,0.00,,,0.00,Wunderground PWS Mod,2013-03-05 05:04:00,
2013-03-05 00:14:00,30.8,14.3,30.01,NW,321,2.0,4.0,50,0.00,,,0.00,Wunderground PWS Mod,2013-03-05 05:14:00,
2013-03-05 00:18:00,30.8,14.8,30.01,NW,321,2.0,4.0,51,0.00,,,0.00,Wunderground PWS Mod,2013-03-05 05:18:00,
2013-03-05 00:24:00,30.8,14.8,30.01,NW,321,2.0,4.0,51,0.00,,,0.00,Wunderground PWS Mod,2013-03-05 05:24:00,
2013-03-05 00:34:00,30.8,14.8,30.01,NW,316,1.0,4.0,51,0.00,,,0.00,Wunderground PWS Mod,2013-03-05 05:34:00,
2013-03-05 00:44:00,30.9,14.9,30.02,NW,316,2.0,5.0,51,0.00,,,0.00,Wunderground PWS Mod,2013-03-05 05:44:00,
2013-03-05 00:46:00,30.8,14.8,30.02,NW,315,2.0,5.0,51,0.00,,,0.00,Wunderground PWS Mod,2013-03-05 05:46:00,
2013-03-05 00:54:00,30.9,14.9,30.03,NW,316,2.0,5.0,51,0.00,,,0.00,Wunderground PWS Mod,2013-03-05 05:54:00,
2013-03-05 01:04:00,30.9,14.9,30.03,NW,316,1.0,5.0,51,0.00,,,0.00,Wunderground PWS Mod,2013-03-05 06:04:00,
2013-03-05 01:14:00,31.1,15.1,30.03,NW,308,3.0,5.0,51,0.00,,,0.00,Wunderground PWS Mod,2013-03-05 06:14:00,
2013-03-05 01:16:00,30.9,14.9,30.03,NW,315,2.0,4.0,51,0.00,,,0.00,Wunderground PWS Mod,2013-03-05 06:16:00,
2013-03-05 01:24:00,30.9,15.3,30.03,NW,307,2.0,5.0,52,0.00,,,0.00,Wunderground PWS Mod,2013-03-05 06:24:00,
2013-03-05 01:34:00,31.1,15.5,30.03,NW,308,2.0,5.0,52,0.00,,,0.00,Wunderground PWS Mod,2013-03-05 06:34:00,
2013-03-05 01:44:00,31.3,15.2,30.03,NW,308,2.0,7.0,51,0.00,,,0.00,Wunderground PWS Mod,2013-03-05 06:44:00,
2013-03-05 01:48:00,31.2,15.2,30.04,NW,315,1.0,4.0,51,0.00,,,0.00,Wunderground PWS Mod,2013-03-05 06:48:00,
2013-03-05 01:54:00,31.2,15.2,30.03,NW,308,2.0,7.0,51,0.00,,,0.00,Wunderground PWS Mod,2013-03-05 06:54:00,
2013-03-05 02:04:00,31.1,15.1,30.03,NW,308,0.0,7.0,51,0.00,,,0.00,Wunderground PWS Mod,2013-03-05 07:04:00,
2013-03-05 02:14:00,31.2,15.2,30.03,NW,308,0.0,7.0,51,0.00,,,0.00,Wunderground PWS Mod,2013-03-05 07:14:00,
2013-03-05 02:18:00,30.9,15.8,30.03,NW,315,0.0,3.0,53,0.00,,,0.00,Wunderground PWS Mod,2013-03-05 07:18:00,
2013-03-05 02:24:00,30.7,15.1,30.03,NW,308,1.0,7.0,52,0.00,,,0.00,Wunderground PWS Mod,2013-03-05 07:24:00,
2013-03-05 02:34:00,30.6,15.5,30.03,NW,308,1.0,7.0,53,0.00,,,0.00,Wunderground PWS Mod,2013-03-05 07:34:00,
2013-03-05 02:44:00,30.1,15.4,30.03,NW,308,0.0,7.0,54,0.00,,,0.00,Wunderground PWS Mod,2013-03-05 07:44:00,
2013-03-05 02:46:00,30.9,15.8,30.03,NW,315,0.0,3.0,53,0.00,,,0.00,Wunderground PWS Mod,2013-03-05 07:46:00,
2013-03-05 02:54:00,30.1,15.4,30.02,NW,308,0.0,7.0,54,0.00,,,0.00,Wunderground PWS Mod,2013-03-05 07:54:00,
2013-03-05 03:04:00,30.0,15.3,30.03,NW,308,0.0,3.0,54,0.00,,,0.00,Wunderground PWS Mod,2013-03-05 08:04:00,
2013-03-05 03:14:00,29.4,15.2,30.03,NW,308,1.0,3.0,55,0.00,,,0.00,Wunderground PWS Mod,2013-03-05 08:14:00,
2013-03-05 03:16:00,30.2,15.5,30.03,NW,315,0.0,2.0,54,0.00,,,0.00,Wunderground PWS Mod,2013-03-05 08:16:00,
2013-03-05 03:24:00,28.9,15.2,30.02,NW,308,0.0,3.0,56,0.00,,,0.00,Wunderground PWS Mod,2013-03-05 08:24:00,
2013-03-05 03:34:00,29.0,15.2,30.03,NW,308,0.0,3.0,56,0.00,,,0.00,Wunderground PWS Mod,2013-03-05 08:34:00,
2013-03-05 03:44:00,29.0,15.2,30.03,NW,308,1.0,3.0,56,0.00,,,0.00,Wunderground PWS Mod,2013-03-05 08:44:00,
2013-03-05 03:48:00,28.9,16.0,30.04,NW,315,1.0,3.0,58,0.00,,,0.00,Wunderground PWS Mod,2013-03-05 08:48:00,
2013-03-05 03:54:00,28.9,15.2,30.03,NW,308,2.0,3.0,56,0.00,,,0.00,Wunderground PWS Mod,2013-03-05 08:54:00,
2013-03-05 04:04:00,28.4,15.5,30.03,NW,308,0.0,3.0,58,0.00,,,0.00,Wunderground PWS Mod,2013-03-05 09:04:00,
2013-03-05 04:14:00,28.7,15.4,30.04,NW,308,2.0,3.0,57,0.00,,,0.00,Wunderground PWS Mod,2013-03-05 09:14:00,
2013-03-05 04:16:00,28.9,16.0,30.04,NW,315,1.0,3.0,58,0.00,,,0.00,Wunderground PWS Mod,2013-03-05 09:16:00,
2013-03-05 04:24:00,28.8,15.5,30.04,NW,308,0.0,3.0,57,0.00,,,0.00,Wunderground PWS Mod,2013-03-05 09:24:00,
2013-03-05 04:34:00,28.6,15.3,30.05,NW,308,1.0,3.0,57,0.00,,,0.00,Wunderground PWS Mod,2013-03-05 09:34:00,
2013-03-05 04:44:00,28.2,15.7,30.05,NW,308,1.0,3.0,59,0.00,,,0.00,Wunderground PWS Mod,2013-03-05 09:44:00,
2013-03-05 04:46:00,28.7,15.4,30.05,NW,315,1.0,3.0,57,0.00,,,0.00,Wunderground PWS Mod,2013-03-05 09:46:00,
2013-03-05 04:54:00,28.2,15.3,30.05,NW,308,1.0,3.0,58,0.00,,,0.00,Wunderground PWS Mod,2013-03-05 09:54:00,
2013-03-05 05:04:00,28.5,15.6,30.06,NW,308,0.0,3.0,58,0.00,,,0.00,Wunderground PWS Mod,2013-03-05 10:04:00,
2013-03-05 05:14:00,28.7,16.2,30.05,NW,308,0.0,3.0,59,0.00,,,0.00,Wunderground PWS Mod,2013-03-05 10:14:00,
2013-03-05 05:18:00,28.7,15.4,30.06,NW,315,1.0,3.0,57,0.00,,,0.00,Wunderground PWS Mod,2013-03-05 10:18:00,
2013-03-05 05:24:00,28.6,15.7,30.05,NW,308,2.0,3.0,58,0.00,,,0.00,Wunderground PWS Mod,2013-03-05 10:24:00,
2013-03-05 05:34:00,29.0,15.7,30.05,NW,308,0.0,3.0,57,0.00,,,0.00,Wunderground PWS Mod,2013-03-05 10:34:00,
2013-03-05 05:44:00,29.4,15.6,30.06,NW,308,0.0,3.0,56,0.00,,,0.00,Wunderground PWS Mod,2013-03-05 10:44:00,
2013-03-05 05:46:00,28.7,15.4,30.06,NW,315,1.0,3.0,57,0.00,,,0.00,Wunderground PWS Mod,2013-03-05 10:46:00,
2013-03-05 05:54:00,29.2,15.8,30.06,NW,308,0.0,3.0,57,0.00,,,0.00,Wunderground PWS Mod,2013-03-05 10:54:00,
2013-03-05 06:04:00,28.5,16.0,30.06,NW,308,0.0,3.0,59,0.00,,,0.00,Wunderground PWS Mod,2013-03-05 11:04:00,
2013-03-05 06:14:00,28.2,16.1,30.06,NW,308,0.0,3.0,60,0.00,,,0.00,Wunderground PWS Mod,2013-03-05 11:14:00,
2013-03-05 06:16:00,29.2,16.6,30.07,NW,315,0.0,2.0,59,0.00,,,0.00,Wunderground PWS Mod,2013-03-05 11:16:00,
2013-03-05 06:24:00,27.7,15.6,30.06,NW,308,0.0,3.0,60,0.00,,,0.00,Wunderground PWS Mod,2013-03-05 11:24:00,
2013-03-05 06:34:00,27.4,15.7,30.06,NW,308,0.0,3.0,61,0.00,,,0.00,Wunderground PWS Mod,2013-03-05 11:34:00,
2013-03-05 06:44:00,27.4,15.7,30.06,NW,308,0.0,3.0,61,0.00,,,0.00,Wunderground PWS Mod,2013-03-05 11:44:00,
2013-03-05 06:50:00,27.4,16.1,30.06,NW,315,0.0,2.0,62,0.00,,,0.00,Wunderground PWS Mod,2013-03-05 11:50:00,
2013-03-05 06:52:00,27.4,16.1,30.06,NW,315,0.0,2.0,62,0.00,,,0.00,Wunderground PWS Mod,2013-03-05 11:52:00,
2013-03-05 06:54:00,27.3,15.6,30.06,NW,308,0.0,3.0,61,0.00,,,0.00,Wunderground PWS Mod,2013-03-05 11:54:00,
2013-03-05 07:04:00,27.3,16.0,30.06,NW,308,0.0,1.0,62,0.00,,,0.00,Wunderground PWS Mod,2013-03-05 12:04:00,
2013-03-05 07:10:00,27.4,16.1,30.06,NW,315,0.0,2.0,62,0.00,,,0.00,Wunderground PWS Mod,2013-03-05 12:10:00,
2013-03-05 07:12:00,27.4,16.1,30.06,NW,315,0.0,2.0,62,0.00,,,0.00,Wunderground PWS Mod,2013-03-05 12:12:00,
2013-03-05 07:14:00,27.4,16.4,30.06,NW,308,2.0,2.0,63,0.00,,,0.00,Wunderground PWS Mod,2013-03-05 12:14:00,
2013-03-05 07:24:00,28.1,16.4,30.07,NE,48,1.0,2.0,61,0.00,,,0.00,Wunderground PWS Mod,2013-03-05 12:24:00,
2013-03-05 07:34:00,29.6,17.0,30.07,NE,48,0.0,2.0,59,0.00,,,0.00,Wunderground PWS Mod,2013-03-05 12:34:00,
2013-03-05 07:44:00,30.9,16.6,30.07,NE,48,4.0,4.0,55,0.00,,,0.00,Wunderground PWS Mod,2013-03-05 12:44:00,
2013-03-05 07:46:00,27.8,15.3,30.07,NE,45,1.0,4.0,59,0.00,,,0.00,Wunderground PWS Mod,2013-03-05 12:46:00,
2013-03-05 07:54:00,31.8,17.0,30.07,NE,48,4.0,4.0,54,0.00,,,0.00,Wunderground PWS Mod,2013-03-05 12:54:00,
2013-03-05 08:04:00,31.9,16.7,30.07,NNE,23,3.0,4.0,53,0.00,,,0.00,Wunderground PWS Mod,2013-03-05 13:04:00,
2013-03-05 08:14:00,32.3,16.6,30.07,NNE,20,3.0,5.0,52,0.00,,,0.00,Wunderground PWS Mod,2013-03-05 13:14:00,
2013-03-05 08:16:00,31.0,15.8,30.08,NE,45,1.0,5.0,53,0.00,,,0.00,Wunderground PWS Mod,2013-03-05 13:16:00,
2013-03-05 08:24:00,32.8,16.2,30.07,North,3,1.0,5.0,50,0.00,,,0.00,Wunderground PWS Mod,2013-03-05 13:24:00,
2013-03-05 08:34:00,33.5,16.4,30.08,North,349,3.0,5.0,49,0.00,,,0.00,Wunderground PWS Mod,2013-03-05 13:34:00,
2013-03-05 08:44:00,33.6,16.0,30.08,NNE,18,1.0,6.0,48,0.00,,,0.00,Wunderground PWS Mod,2013-03-05 13:44:00,
2013-03-05 08:48:00,33.7,15.1,30.08,NNW,338,2.0,9.0,46,0.00,,,0.00,Wunderground PWS Mod,2013-03-05 13:48:00,
2013-03-05 08:54:00,33.7,15.6,30.08,NNW,345,4.0,6.0,47,0.00,,,0.00,Wunderground PWS Mod,2013-03-05 13:54:00,
2013-03-05 09:04:00,34.2,16.0,30.07,NNE,20,4.0,6.0,47,0.00,,,0.00,Wunderground PWS Mod,2013-03-05 14:04:00,
2013-03-05 09:14:00,34.5,15.3,30.07,NNE,17,2.0,9.0,45,0.00,,,0.00,Wunderground PWS Mod,2013-03-05 14:14:00,
2013-03-05 09:18:00,34.7,14.5,30.08,NNE,23,3.0,8.0,43,0.00,,,0.00,Wunderground PWS Mod,2013-03-05 14:18:00,
2013-03-05 09:24:00,35.0,15.3,30.07,NNE,13,5.0,9.0,44,0.00,,,0.00,Wunderground PWS Mod,2013-03-05 14:24:00,
2013-03-05 09:34:00,34.9,14.1,30.07,NW,311,6.0,9.0,42,0.00,,,0.00,Wunderground PWS Mod,2013-03-05 14:34:00,
2013-03-05 09:44:00,35.5,14.1,30.07,NNE,20,8.0,9.0,41,0.00,,,0.00,Wunderground PWS Mod,2013-03-05 14:44:00,
2013-03-05 09:50:00,35.5,13.0,30.07,North,0,5.0,11.0,39,0.00,,,0.00,Wunderground PWS Mod,2013-03-05 14:50:00,
2013-03-05 09:52:00,35.5,13.0,30.07,North,0,5.0,11.0,39,0.00,,,0.00,Wunderground PWS Mod,2013-03-05 14:52:00,
2013-03-05 09:54:00,35.9,13.3,30.07,NNE,18,7.0,9.0,39,0.00,,,0.00,Wunderground PWS Mod,2013-03-05 14:54:00,
2013-03-05 10:04:00,36.1,13.5,30.06,North,7,4.0,8.0,39,0.00,,,0.00,Wunderground PWS Mod,2013-03-05 15:04:00,
2013-03-05 10:14:00,36.6,13.9,30.06,NNE,19,4.0,11.0,39,0.00,,,0.00,Wunderground PWS Mod,2013-03-05 15:14:00,
2013-03-05 10:20:00,36.9,13.0,30.06,NNE,23,5.0,13.0,37,0.00,,,0.00,Wunderground PWS Mod,2013-03-05 15:20:00,
2013-03-05 10:22:00,36.9,13.0,30.06,NNE,23,5.0,13.0,37,0.00,,,0.00,Wunderground PWS Mod,2013-03-05 15:22:00,
2013-03-05 10:24:00,37.1,13.8,30.06,WNW,294,2.0,11.0,38,0.00,,,0.00,Wunderground PWS Mod,2013-03-05 15:24:00,
2013-03-05 10:34:00,38.2,14.2,30.05,NNE,19,6.0,11.0,37,0.00,,,0.00,Wunderground PWS Mod,2013-03-05 15:34:00,
2013-03-05 10:44:00,38.2,14.2,30.05,NE,39,2.0,13.0,37,0.00,,,0.00,Wunderground PWS Mod,2013-03-05 15:44:00,
2013-03-05 10:50:00,38.3,13.0,30.05,NNE,23,4.0,11.0,35,0.00,,,0.00,Wunderground PWS Mod,2013-03-05 15:50:00,
2013-03-05 10:52:00,38.3,13.0,30.05,NNE,23,4.0,11.0,35,0.00,,,0.00,Wunderground PWS Mod,2013-03-05 15:52:00,
2013-03-05 10:54:00,38.5,13.8,30.05,NNW,343,6.0,13.0,36,0.00,,,0.00,Wunderground PWS Mod,2013-03-05 15:54:00,
2013-03-05 11:04:00,39.0,14.3,30.04,NE,39,3.0,13.0,36,0.00,,,0.00,Wunderground PWS Mod,2013-03-05 16:04:00,
2013-03-05 11:10:00,38.3,13.0,30.05,NNE,23,4.0,11.0,35,0.00,,,0.00,Wunderground PWS Mod,2013-03-05 16:10:00,
2013-03-05 11:12:00,38.3,13.0,30.05,NNE,23,4.0,11.0,35,0.00,,,0.00,Wunderground PWS Mod,2013-03-05 16:12:00,
2013-03-05 11:14:00,39.7,13.6,30.04,North,7,3.0,13.0,34,0.00,,,0.00,Wunderground PWS Mod,2013-03-05 16:14:00,
2013-03-05 11:24:00,40.2,13.3,30.02,NNW,328,3.0,13.0,33,0.00,,,0.00,Wunderground PWS Mod,2013-03-05 16:24:00,
2013-03-05 11:34:00,40.7,13.8,30.02,NE,39,3.0,13.0,33,0.00,,,0.00,Wunderground PWS Mod,2013-03-05 16:34:00,
2013-03-05 11:44:00,41.0,14.1,30.03,NNE,31,9.0,13.0,33,0.00,,,0.00,Wunderground PWS Mod,2013-03-05 16:44:00,
2013-03-05 11:46:00,40.0,13.8,30.03,NNE,23,4.0,12.0,34,0.00,,,0.00,Wunderground PWS Mod,2013-03-05 16:46:00,
2013-03-05 11:54:00,41.7,13.2,30.03,WNW,303,3.0,13.0,31,0.00,,,0.00,Wunderground PWS Mod,2013-03-05 16:54:00,
2013-03-05 12:04:00,42.1,13.6,30.03,NNE,21,2.0,12.0,31,0.00,,,0.00,Wunderground PWS Mod,2013-03-05 17:04:00,
2013-03-05 12:14:00,43.0,14.4,30.02,NE,50,5.0,12.0,31,0.00,,,0.00,Wunderground PWS Mod,2013-03-05 17:14:00,
2013-03-05 12:16:00,41.3,12.9,30.04,NNE,23,4.0,12.0,31,0.00,,,0.00,Wunderground PWS Mod,2013-03-05 17:16:00,
2013-03-05 12:24:00,43.5,13.3,30.02,NNW,345,4.0,12.0,29,0.00,,,0.00,Wunderground PWS Mod,2013-03-05 17:24:00,
2013-03-05 12:34:00,43.3,11.5,30.01,NW,309,3.0,12.0,27,0.00,,,0.00,Wunderground PWS Mod,2013-03-05 17:34:00,
2013-03-05 12:44:00,43.4,12.4,30.01,NNE,14,1.0,12.0,28,0.00,,,0.00,Wunderground PWS Mod,2013-03-05 17:44:00,
2013-03-05 12:48:00,44.0,12.1,30.00,North,0,3.0,8.0,27,0.00,,,0.00,Wunderground PWS Mod,2013-03-05 17:48:00,
2013-03-05 12:54:00,44.6,12.6,30.00,North,359,5.0,12.0,27,0.00,,,0.00,Wunderground PWS Mod,2013-03-05 17:54:00,
2013-03-05 13:04:00,45.2,13.1,30.00,NNE,20,8.0,10.0,27,0.00,,,0.00,Wunderground PWS Mod,2013-03-05 18:04:00,
2013-03-05 13:10:00,44.0,12.1,30.00,North,0,3.0,8.0,27,0.00,,,0.00,Wunderground PWS Mod,2013-03-05 18:10:00,
2013-03-05 13:12:00,44.0,12.1,30.00,North,0,3.0,8.0,27,0.00,,,0.00,Wunderground PWS Mod,2013-03-05 18:12:00,
2013-03-05 13:14:00,45.2,13.1,29.99,NE,49,6.0,10.0,27,0.00,,,0.00,Wunderground PWS Mod,2013-03-05 18:14:00,
2013-03-05 13:24:00,45.3,13.2,29.98,North,352,1.0,10.0,27,0.00,,,0.00,Wunderground PWS Mod,2013-03-05 18:24:00,
2013-03-05 13:34:00,45.4,13.3,29.97,East,92,8.0,10.0,27,0.00,,,0.00,Wunderground PWS Mod,2013-03-05 18:34:00,
2013-03-05 13:44:00,45.8,13.7,29.97,SSE,168,4.0,12.0,27,0.00,,,0.00,Wunderground PWS Mod,2013-03-05 18:44:00,
2013-03-05 13:46:00,45.4,13.3,29.98,NNE,23,5.0,12.0,27,0.00,,,0.00,Wunderground PWS Mod,2013-03-05 18:46:00,
2013-03-05 13:54:00,46.3,14.1,29.97,NE,38,7.0,12.0,27,0.00,,,0.00,Wunderground PWS Mod,2013-03-05 18:54:00,
2013-03-05 14:04:00,46.3,14.1,29.96,NE,51,3.0,12.0,27,0.00,,,0.00,Wunderground PWS Mod,2013-03-05 19:04:00,
2013-03-05 14:14:00,46.2,12.3,29.96,NNE,26,5.0,12.0,25,0.00,,,0.00,Wunderground PWS Mod,2013-03-05 19:14:00,
2013-03-05 14:16:00,45.9,13.7,29.97,ESE,113,4.0,9.0,27,0.00,,,0.00,Wunderground PWS Mod,2013-03-05 19:16:00,
2013-03-05 14:24:00,46.6,12.6,29.96,NNE,32,2.0,12.0,25,0.00,,,0.00,Wunderground PWS Mod,2013-03-05 19:24:00,
2013-03-05 14:34:00,46.5,14.3,29.95,NNE,28,3.0,12.0,27,0.00,,,0.00,Wunderground PWS Mod,2013-03-05 19:34:00,
2013-03-05 14:44:00,46.3,13.2,29.96,NE,56,2.0,12.0,26,0.00,,,0.00,Wunderground PWS Mod,2013-03-05 19:44:00,
2013-03-05 14:48:00,46.4,16.6,29.95,ESE,113,5.0,12.0,30,0.00,,,0.00,Wunderground PWS Mod,2013-03-05 19:48:00,
2013-03-05 14:54:00,46.6,16.0,29.95,ESE,112,9.0,12.0,29,0.00,,,0.00,Wunderground PWS Mod,2013-03-05 19:54:00,
2013-03-05 15:04:00,45.4,16.5,29.94,SSE,147,5.0,8.0,31,0.00,,,0.00,Wunderground PWS Mod,2013-03-05 20:04:00,
2013-03-05 15:14:00,45.0,17.6,29.94,South,173,10.0,10.0,33,0.00,,,0.00,Wunderground PWS Mod,2013-03-05 20:14:00,
2013-03-05 15:16:00,46.4,16.6,29.95,ESE,113,5.0,12.0,30,0.00,,,0.00,Wunderground PWS Mod,2013-03-05 20:16:00,
2013-03-05 15:24:00,44.2,17.6,29.94,SSE,167,6.0,12.0,34,0.00,,,0.00,Wunderground PWS Mod,2013-03-05 20:24:00,
2013-03-05 15:34:00,43.7,17.1,29.93,SSE,148,11.0,12.0,34,0.00,,,0.00,Wunderground PWS Mod,2013-03-05 20:34:00,
2013-03-05 15:44:00,44.1,16.8,29.93,SSE,166,11.0,15.0,33,0.00,,,0.00,Wunderground PWS Mod,2013-03-05 20:44:00,
2013-03-05 15:50:00,44.3,18.3,29.95,SSE,158,8.0,16.0,35,0.00,,,0.00,Wunderground PWS Mod,2013-03-05 20:50:00,
2013-03-05 15:52:00,44.3,18.3,29.95,SSE,158,8.0,16.0,35,0.00,,,0.00,Wunderground PWS Mod,2013-03-05 20:52:00,
2013-03-05 15:54:00,45.0,17.6,29.94,ESE,113,3.0,15.0,33,0.00,,,0.00,Wunderground PWS Mod,2013-03-05 20:54:00,
2013-03-05 16:04:00,44.2,18.2,29.94,SE,143,11.0,15.0,35,0.00,,,0.00,Wunderground PWS Mod,2013-03-05 21:04:00,
2013-03-05 16:14:00,43.5,18.9,29.94,ESE,106,3.0,16.0,37,0.00,,,0.00,Wunderground PWS Mod,2013-03-05 21:14:00,
2013-03-05 16:18:00,43.8,19.8,29.95,SE,135,6.0,14.0,38,0.00,,,0.00,Wunderground PWS Mod,2013-03-05 21:18:00,
2013-03-05 16:24:00,43.9,19.3,29.94,SE,146,3.0,16.0,37,0.00,,,0.00,Wunderground PWS Mod,2013-03-05 21:24:00,
2013-03-05 16:34:00,43.4,19.5,29.94,SSE,168,5.0,16.0,38,0.00,,,0.00,Wunderground PWS Mod,2013-03-05 21:34:00,
2013-03-05 16:44:00,42.8,19.5,29.95,SE,130,8.0,16.0,39,0.00,,,0.00,Wunderground PWS Mod,2013-03-05 21:44:00,
2013-03-05 16:46:00,43.8,19.8,29.95,SE,135,6.0,14.0,38,0.00,,,0.00,Wunderground PWS Mod,2013-03-05 21:46:00,
2013-03-05 16:54:00,42.6,19.9,29.95,SSE,150,9.0,16.0,40,0.00,,,0.00,Wunderground PWS Mod,2013-03-05 21:54:00,
2013-03-05 17:04:00,42.7,20.6,29.95,SSE,157,6.0,14.0,41,0.00,,,0.00,Wunderground PWS Mod,2013-03-05 22:04:00,
2013-03-05 17:10:00,42.9,20.8,29.95,SE,135,6.0,12.0,41,0.00,,,0.00,Wunderground PWS Mod,2013-03-05 22:10:00,
2013-03-05 17:12:00,42.9,20.8,29.95,SE,135,6.0,12.0,41,0.00,,,0.00,Wunderground PWS Mod,2013-03-05 22:12:00,
2013-03-05 17:14:00,42.4,21.5,29.95,ESE,110,3.0,14.0,43,0.00,,,0.00,Wunderground PWS Mod,2013-03-05 22:14:00,
2013-03-05 17:24:00,42.7,21.7,29.95,SE,144,4.0,14.0,43,0.00,,,0.00,Wunderground PWS Mod,2013-03-05 22:24:00,
2013-03-05 17:34:00,42.2,21.3,29.95,SE,137,7.0,14.0,43,0.00,,,0.00,Wunderground PWS Mod,2013-03-05 22:34:00,
2013-03-05 17:44:00,42.1,21.2,29.95,ESE,115,6.0,14.0,43,0.00,,,0.00,Wunderground PWS Mod,2013-03-05 22:44:00,
2013-03-05 17:48:00,42.1,21.7,29.95,ESE,113,4.0,9.0,44,0.00,,,0.00,Wunderground PWS Mod,2013-03-05 22:48:00,
2013-03-05 17:54:00,42.2,21.3,29.94,ESE,118,4.0,14.0,43,0.00,,,0.00,Wunderground PWS Mod,2013-03-05 22:54:00,
2013-03-05 18:04:00,42.2,21.8,29.95,ESE,122,3.0,10.0,44,0.00,,,0.00,Wunderground PWS Mod,2013-03-05 23:04:00,
2013-03-05 18:14:00,42.1,22.3,29.94,ESE,108,2.0,10.0,45,0.00,,,0.00,Wunderground PWS Mod,2013-03-05 23:14:00,
2013-03-05 18:18:00,42.1,22.8,29.94,ESE,113,3.0,6.0,46,0.00,,,0.00,Wunderground PWS Mod,2013-03-05 23:18:00,
2013-03-05 18:24:00,42.0,22.2,29.94,SE,128,5.0,10.0,45,0.00,,,0.00,Wunderground PWS Mod,2013-03-05 23:24:00,
2013-03-05 18:34:00,41.9,22.6,29.94,ESE,119,3.0,10.0,46,0.00,,,0.00,Wunderground PWS Mod,2013-03-05 23:34:00,
2013-03-05 18:44:00,41.7,22.4,29.94,SE,137,6.0,10.0,46,0.00,,,0.00,Wunderground PWS Mod,2013-03-05 23:44:00,
2013-03-05 18:46:00,42.1,22.8,29.94,ESE,113,3.0,6.0,46,0.00,,,0.00,Wunderground PWS Mod,2013-03-05 23:46:00,
2013-03-05 18:54:00,41.6,22.3,29.94,SSE,152,3.0,10.0,46,0.00,,,0.00,Wunderground PWS Mod,2013-03-05 23:54:00,
2013-03-05 19:04:00,41.7,22.4,29.94,SSE,152,4.0,6.0,46,0.00,,,0.00,Wunderground PWS Mod,2013-03-06 00:04:00,
2013-03-05 19:14:00,41.6,22.8,29.94,SE,137,4.0,8.0,47,0.00,,,0.00,Wunderground PWS Mod,2013-03-06 00:14:00,
2013-03-05 19:20:00,41.6,23.3,29.93,SSE,158,4.0,8.0,48,0.00,,,0.00,Wunderground PWS Mod,2013-03-06 00:20:00,
2013-03-05 19:22:00,41.6,23.3,29.93,SSE,158,4.0,8.0,48,0.00,,,0.00,Wunderground PWS Mod,2013-03-06 00:22:00,
2013-03-05 19:24:00,41.5,22.7,29.93,SSE,151,4.0,8.0,47,0.00,,,0.00,Wunderground PWS Mod,2013-03-06 00:24:00,
2013-03-05 19:34:00,41.5,23.2,29.93,SSE,147,3.0,8.0,48,0.00,,,0.00,Wunderground PWS Mod,2013-03-06 00:34:00,
2013-03-05 19:44:00,41.4,23.2,29.92,SE,131,3.0,8.0,48,0.00,,,0.00,Wunderground PWS Mod,2013-03-06 00:44:00,
2013-03-05 19:48:00,41.4,23.6,29.93,SE,135,3.0,6.0,49,0.00,,,0.00,Wunderground PWS Mod,2013-03-06 00:48:00,
2013-03-05 19:54:00,41.3,23.6,29.92,SE,134,3.0,8.0,49,0.00,,,0.00,Wunderground PWS Mod,2013-03-06 00:54:00,
2013-03-05 20:04:00,41.6,23.8,29.92,SE,133,4.0,8.0,49,0.00,,,0.00,Wunderground PWS Mod,2013-03-06 01:04:00,
2013-03-05 20:14:00,41.5,23.7,29.92,SE,130,1.0,8.0,49,0.00,,,0.00,Wunderground PWS Mod,2013-03-06 01:14:00,
2013-03-05 20:18:00,41.5,23.7,29.92,SE,135,2.0,6.0,49,0.00,,,0.00,Wunderground PWS Mod,2013-03-06 01:18:00,
2013-03-05 20:24:00,41.4,23.6,29.92,ESE,119,3.0,8.0,49,0.00,,,0.00,Wunderground PWS Mod,2013-03-06 01:24:00,
2013-03-05 20:34:00,41.3,23.6,29.92,ESE,117,2.0,8.0,49,0.00,,,0.00,Wunderground PWS Mod,2013-03-06 01:34:00,
2013-03-05 20:44:00,41.3,23.1,29.92,ESE,107,3.0,8.0,48,0.00,,,0.00,Wunderground PWS Mod,2013-03-06 01:44:00,
2013-03-05 20:46:00,41.5,23.7,29.92,SE,135,2.0,6.0,49,0.00,,,0.00,Wunderground PWS Mod,2013-03-06 01:46:00,
2013-03-05 20:54:00,41.3,23.1,29.91,SE,130,4.0,8.0,48,0.00,,,0.00,Wunderground PWS Mod,2013-03-06 01:54:00,
2013-03-05 21:04:00,41.1,24.3,29.91,East,99,7.0,7.0,51,0.00,,,0.00,Wunderground PWS Mod,2013-03-06 02:04:00,
2013-03-05 21:14:00,41.0,24.7,29.90,SE,124,2.0,7.0,52,0.00,,,0.00,Wunderground PWS Mod,2013-03-06 02:14:00,
2013-03-05 21:16:00,41.3,24.5,29.92,ESE,113,3.0,6.0,51,0.00,,,0.00,Wunderground PWS Mod,2013-03-06 02:16:00,
2013-03-05 21:24:00,40.8,23.1,29.90,SE,126,5.0,7.0,49,0.00,,,0.00,Wunderground PWS Mod,2013-03-06 02:24:00,
2013-03-05 21:34:00,40.6,24.3,29.90,SE,130,7.0,9.0,52,0.00,,,0.00,Wunderground PWS Mod,2013-03-06 02:34:00,
2013-03-05 21:44:00,40.5,25.1,29.89,ESE,116,11.0,11.0,54,0.00,,,0.00,Wunderground PWS Mod,2013-03-06 02:44:00,
2013-03-05 21:48:00,40.3,27.1,29.88,ESE,113,7.0,15.0,59,0.00,,,0.00,Wunderground PWS Mod,2013-03-06 02:48:00,
2013-03-05 21:54:00,40.1,26.5,29.88,SE,136,9.0,14.0,58,0.00,,,0.00,Wunderground PWS Mod,2013-03-06 02:54:00,
2013-03-05 22:04:00,39.4,26.2,29.87,SE,136,10.0,14.0,59,0.00,,,0.00,Wunderground PWS Mod,2013-03-06 03:04:00,
2013-03-05 22:14:00,39.2,26.1,29.87,SE,124,5.0,15.0,59,0.00,,,0.00,Wunderground PWS Mod,2013-03-06 03:14:00,
2013-03-05 22:18:00,39.1,25.6,29.87,SE,135,7.0,14.0,58,0.00,,,0.00,Wunderground PWS Mod,2013-03-06 03:18:00,
2013-03-05 22:24:00,39.0,25.9,29.87,SE,144,9.0,15.0,59,0.00,,,0.00,Wunderground PWS Mod,2013-03-06 03:24:00,
2013-03-05 22:34:00,39.0,25.5,29.87,SE,133,4.0,15.0,58,0.00,,,0.00,Wunderground PWS Mod,2013-03-06 03:34:00,
2013-03-05 22:44:00,39.1,25.6,29.86,East,94,2.0,15.0,58,0.00,,,0.00,Wunderground PWS Mod,2013-03-06 03:44:00,
2013-03-05 22:50:00,39.1,25.1,29.87,SE,135,5.0,9.0,57,0.00,,,0.00,Wunderground PWS Mod,2013-03-06 03:50:00,
2013-03-05 22:52:00,39.1,25.1,29.87,SE,135,5.0,9.0,57,0.00,,,0.00,Wunderground PWS Mod,2013-03-06 03:52:00,
2013-03-05 22:54:00,39.2,25.2,29.86,SE,127,6.0,15.0,57,0.00,,,0.00,Wunderground PWS Mod,2013-03-06 03:54:00,
2013-03-05 23:04:00,39.1,25.1,29.86,SE,132,3.0,14.0,57,0.00,,,0.00,Wunderground PWS Mod,2013-03-06 04:04:00,
2013-03-05 23:10:00,39.1,25.1,29.87,SE,135,5.0,9.0,57,0.00,,,0.00,Wunderground PWS Mod,2013-03-06 04:10:00,
2013-03-05 23:12:00,39.1,25.1,29.87,SE,135,5.0,9.0,57,0.00,,,0.00,Wunderground PWS Mod,2013-03-06 04:12:00,
2013-03-05 23:14:00,39.1,25.6,29.86,East,98,3.0,14.0,58,0.00,,,0.00,Wunderground PWS Mod,2013-03-06 04:14:00,
2013-03-05 23:24:00,39.0,25.9,29.85,East,96,4.0,14.0,59,0.00,,,0.00,Wunderground PWS Mod,2013-03-06 04:24:00,
2013-03-05 23:34:00,38.9,25.4,29.84,East,87,5.0,14.0,58,0.00,,,0.00,Wunderground PWS Mod,2013-03-06 04:34:00,
2013-03-05 23:44:00,38.8,25.3,29.83,East,84,6.0,14.0,58,0.00,,,0.00,Wunderground PWS Mod,2013-03-06 04:44:00,
2013-03-05 23:50:00,38.8,25.3,29.83,East,90,6.0,12.0,58,0.00,,,0.00,Wunderground PWS Mod,2013-03-06 04:50:00,
2013-03-05 23:52:00,38.8,25.3,29.83,East,90,6.0,12.0,58,0.00,,,0.00,Wunderground PWS Mod,2013-03-06 04:52:00,
2013-03-05 23:54:00,38.8,25.3,29.83,East,89,4.0,14.0,58,0.00,,,0.00,Wunderground PWS Mod,2013-03-06 04:54:00,